Time;durP1;ratioP1;P1;durP2;ratioP2;P2;SDS_P1;SDS_P2;PMS_P1;PMS_P2;Temp;Humidity;BMP_temperature;BMP_pressure;BME280_temperature;BME280_humidity;BME280_pressure;Samples;Min_cycle;Max_cycle;Signal;HPM_P1;HPM_P2
2022/04/06 00:01:40;;;;;;;12.67;11.07;;;;;;;10.13;65.55;99144.97;5113692;28;20229;-77
2022/04/06 00:04:06;;;;;;;11.80;10.60;;;;;;;10.14;64.87;99149.25;5113649;28;20199;-77
2022/04/06 00:06:33;;;;;;;12.30;10.83;;;;;;;10.13;65.70;99147.63;5114627;28;20260;-78
2022/04/06 00:09:00;;;;;;;12.17;10.90;;;;;;;10.13;65.73;99147.63;5113323;28;20721;-78
2022/04/06 00:11:26;;;;;;;11.50;10.37;;;;;;;10.14;64.43;99143.94;5114325;28;20212;-78
2022/04/06 00:13:53;;;;;;;13.77;11.13;;;;;;;10.17;65.06;99149.66;5113740;28;20741;-77
2022/04/06 00:16:20;;;;;;;11.47;10.47;;;;;;;10.19;64.40;99149.44;5113277;28;20248;-76
2022/04/06 00:18:48;;;;;;;12.83;10.10;;;;;;;10.19;64.73;99152.94;5113714;28;20191;-77
2022/04/06 00:21:15;;;;;;;12.37;11.07;;;;;;;10.16;64.76;99147.19;5113731;28;20215;-78
2022/04/06 00:23:42;;;;;;;11.97;10.73;;;;;;;10.16;65.51;99148.03;5114504;28;20231;-76
2022/04/06 00:26:09;;;;;;;16.50;11.40;;;;;;;10.11;65.49;99154.94;5113756;28;20195;-76
2022/04/06 00:28:35;;;;;;;13.33;11.17;;;;;;;10.04;66.14;99164.69;5113465;28;20203;-76
2022/04/06 00:31:03;;;;;;;16.23;11.23;;;;;;;9.84;64.93;99145.25;5113211;28;20248;-76
2022/04/06 00:33:29;;;;;;;18.20;11.87;;;;;;;9.86;65.54;99167.09;5113658;28;20226;-76
2022/04/06 00:35:57;;;;;;;15.00;10.97;;;;;;;9.78;66.29;99154.00;5113213;28;20195;-77
2022/04/06 00:38:24;;;;;;;12.73;11.07;;;;;;;9.65;66.50;99164.59;5113344;28;20247;-76
2022/04/06 00:40:51;;;;;;;12.77;10.00;;;;;;;9.59;67.63;99154.75;5113533;28;20267;-75
2022/04/06 00:43:17;;;;;;;12.97;10.90;;;;;;;9.54;67.39;99162.47;5113270;28;20574;-75
2022/04/06 00:45:45;;;;;;;12.73;10.93;;;;;;;9.49;67.41;99162.25;5112909;28;20195;-75
2022/04/06 00:48:12;;;;;;;12.07;10.87;;;;;;;9.45;67.65;99158.38;5113066;28;20190;-76
2022/04/06 00:50:41;;;;;;;12.50;11.20;;;;;;;9.47;68.00;99164.28;5112886;28;20190;-76
2022/04/06 00:53:10;;;;;;;15.63;11.17;;;;;;;9.50;67.60;99161.25;5112871;28;20598;-76
2022/04/06 00:55:39;;;;;;;19.73;11.97;;;;;;;9.41;67.36;99146.53;5112796;28;20194;-76
2022/04/06 00:58:07;;;;;;;14.27;11.10;;;;;;;9.49;68.42;99162.25;5113161;28;20198;-76
2022/04/06 01:00:33;;;;;;;12.13;10.17;;;;;;;9.37;68.99;99154.06;5113092;28;20241;-77
2022/04/06 01:03:01;;;;;;;13.07;10.77;;;;;;;9.43;68.24;99166.50;5113450;28;20194;-76
2022/04/06 01:05:28;;;;;;;12.47;10.73;;;;;;;9.38;69.02;99160.16;5112504;28;20712;-76
2022/04/06 01:07:59;;;;;;;13.70;9.90;;;;;;;9.36;67.98;99165.66;5112666;28;20258;-77
2022/04/06 01:10:27;;;;;;;11.80;9.63;;;;;;;9.20;67.35;99165.97;5114533;28;20212;-78
2022/04/06 01:12:56;;;;;;;11.13;9.53;;;;;;;9.14;67.83;99165.94;5113966;28;20736;-77
2022/04/06 01:15:24;;;;;;;11.17;9.77;;;;;;;9.11;67.28;99167.16;5112713;28;20655;-77
2022/04/06 01:17:51;;;;;;;11.37;10.10;;;;;;;9.08;67.69;99169.38;5112655;28;20194;-77
2022/04/06 01:20:17;;;;;;;11.40;9.93;;;;;;;9.06;68.59;99169.56;5112945;28;20199;-77
2022/04/06 01:22:45;;;;;;;11.90;10.67;;;;;;;9.04;67.83;99174.25;5113258;28;20226;-78
2022/04/06 01:25:12;;;;;;;12.27;10.23;;;;;;;9.04;69.07;99163.66;5112897;28;20199;-78
2022/04/06 01:27:39;;;;;;;11.73;10.53;;;;;;;9.03;69.06;99154.06;5112215;28;20198;-77
2022/04/06 01:30:07;;;;;;;11.73;10.63;;;;;;;9.09;67.87;99163.88;5112696;28;20202;-78
2022/04/06 01:32:35;;;;;;;13.73;11.10;;;;;;;9.06;68.67;99164.25;5112631;28;20214;-77
2022/04/06 01:35:02;;;;;;;11.93;10.83;;;;;;;9.12;68.39;99178.56;5112495;28;20722;-77
2022/04/06 01:37:30;;;;;;;12.53;11.33;;;;;;;9.15;68.22;99183.50;5112256;28;20655;-78
2022/04/06 01:39:59;;;;;;;13.80;12.43;;;;;;;9.10;68.43;99180.59;5112350;28;20195;-79
2022/04/06 01:42:26;;;;;;;15.07;12.43;;;;;;;8.98;68.90;99182.13;5112723;28;20255;-77
2022/04/06 01:44:53;;;;;;;16.53;13.27;;;;;;;8.95;68.69;99185.97;5112423;28;20247;-79
2022/04/06 01:47:22;;;;;;;16.40;12.83;;;;;;;8.95;69.70;99182.53;5113447;28;20203;-79
2022/04/06 01:52:34;;;;;;;14.47;11.83;;;;;;;9.00;69.73;99182.78;5112699;28;20647;-81
2022/04/06 01:55:05;;;;;;;14.43;12.30;;;;;;;8.99;69.40;99184.59;5112577;28;20190;-80
2022/04/06 01:57:33;;;;;;;19.43;12.67;;;;;;;8.97;69.61;99191.09;5112314;28;20191;-80
2022/04/06 02:00:00;;;;;;;13.00;11.47;;;;;;;8.91;68.99;99186.59;5112087;28;20247;-78
2022/04/06 02:02:30;;;;;;;11.37;10.30;;;;;;;8.92;69.52;99182.91;5112135;28;20195;-80
2022/04/06 02:04:59;;;;;;;11.50;10.30;;;;;;;8.91;69.04;99181.28;5112899;28;20187;-78
2022/04/06 02:07:26;;;;;;;11.67;10.60;;;;;;;8.91;68.70;99186.59;5112515;28;20237;-78
2022/04/06 02:09:53;;;;;;;12.67;11.47;;;;;;;8.88;69.18;99192.25;5111765;28;20191;-78
2022/04/06 02:12:22;;;;;;;12.17;10.83;;;;;;;8.83;69.44;99190.16;5112267;28;20255;-78
2022/04/06 02:14:49;;;;;;;14.73;10.53;;;;;;;8.83;70.22;99190.16;5112378;28;20193;-79
2022/04/06 02:17:16;;;;;;;15.43;11.67;;;;;;;8.86;69.57;99194.28;5115718;28;20194;-79
2022/04/06 02:19:43;;;;;;;12.03;10.60;;;;;;;8.87;69.15;99195.91;5116706;28;20190;-79
2022/04/06 02:22:10;;;;;;;13.13;11.33;;;;;;;8.85;69.80;99198.75;5115775;28;20195;-78
2022/04/06 02:24:38;;;;;;;15.30;11.50;;;;;;;8.85;69.81;99200.56;5115989;28;20183;-79
2022/04/06 02:27:07;;;;;;;17.77;10.73;;;;;;;8.83;69.62;99200.75;5116585;28;20199;-79
2022/04/06 02:29:35;;;;;;;14.60;11.77;;;;;;;8.83;70.37;99202.63;5115502;28;20194;-78
2022/04/06 02:32:02;;;;;;;12.60;11.10;;;;;;;8.79;70.14;99198.72;5115161;28;20199;-79
2022/04/06 02:34:29;;;;;;;14.33;10.80;;;;;;;8.81;69.70;99207.25;5115647;28;20596;-79
2022/04/06 02:36:55;;;;;;;13.13;10.70;;;;;;;8.76;70.05;99205.22;5115116;28;20282;-76
2022/04/06 02:39:22;;;;;;;12.67;10.63;;;;;;;8.73;69.76;99210.88;5115502;28;20191;-76
2022/04/06 02:41:49;;;;;;;13.63;10.87;;;;;;;8.72;69.59;99211.91;5115095;28;20187;-78
2022/04/06 02:44:16;;;;;;;17.07;10.83;;;;;;;8.68;69.87;99215.09;5116629;28;20260;-78
2022/04/06 02:46:45;;;;;;;17.13;11.33;;;;;;;8.54;70.45;99211.50;5115018;28;20738;-77
2022/04/06 02:49:11;;;;;;;20.17;10.97;;;;;;;8.56;70.73;99213.97;5115127;28;20625;-77
2022/04/06 02:51:38;;;;;;;21.37;11.77;;;;;;;8.62;70.46;99223.81;5115004;28;20190;-77
2022/04/06 02:54:05;;;;;;;14.47;12.87;;;;;;;8.53;70.81;99223.13;5115405;28;20271;-77
2022/04/06 02:56:32;;;;;;;15.07;12.07;;;;;;;8.44;71.98;99218.13;5115615;28;20190;-77
2022/04/06 02:59:00;;;;;;;17.33;11.90;;;;;;;8.48;71.14;99227.34;5115718;28;20190;-78
2022/04/06 03:01:27;;;;;;;16.67;11.77;;;;;;;8.51;71.19;99226.97;5115465;28;20198;-77
2022/04/06 03:03:55;;;;;;;20.07;11.97;;;;;;;8.52;70.58;99218.84;5115123;28;20613;-77
2022/04/06 03:06:22;;;;;;;23.07;13.97;;;;;;;8.45;70.78;99227.75;5115535;28;20252;-77
2022/04/06 03:08:48;;;;;;;20.80;13.07;;;;;;;8.27;70.72;99229.97;5114857;28;20194;-76
2022/04/06 03:11:15;;;;;;;17.93;13.57;;;;;;;8.22;71.59;99227.09;5114883;28;20740;-76
2022/04/06 03:13:42;;;;;;;16.80;13.87;;;;;;;8.21;71.32;99226.25;5115341;28;20218;-77
2022/04/06 03:16:08;;;;;;;20.77;13.80;;;;;;;8.17;70.64;99232.88;5114369;28;20194;-77
2022/04/06 03:18:35;;;;;;;14.47;12.97;;;;;;;8.08;71.91;99226.06;5115291;28;20190;-77
2022/04/06 03:21:03;;;;;;;14.87;12.90;;;;;;;8.08;71.95;99231.38;5114926;28;20251;-77
2022/04/06 03:23:30;;;;;;;15.10;13.40;;;;;;;8.03;72.06;99233.75;5114717;28;20706;-77
2022/04/06 03:25:57;;;;;;;20.83;13.30;;;;;;;7.95;72.56;99230.38;5114720;28;20195;-77
2022/04/06 03:28:24;;;;;;;17.07;13.10;;;;;;;7.85;72.23;99236.00;5114028;28;20198;-77
2022/04/06 03:30:51;;;;;;;17.73;13.77;;;;;;;7.78;72.92;99234.25;5114978;28;20256;-77
2022/04/06 03:33:17;;;;;;;18.00;14.80;;;;;;;7.67;72.88;99234.75;5113997;28;20226;-76
2022/04/06 03:35:45;;;;;;;22.23;14.37;;;;;;;7.67;73.73;99237.38;5114265;28;20664;-76
2022/04/06 03:38:13;;;;;;;17.77;14.90;;;;;;;7.61;73.64;99246.88;5113982;28;20548;-76
2022/04/06 03:40:39;;;;;;;19.37;15.13;;;;;;;7.57;73.51;99244.75;5114183;28;20191;-77
2022/04/06 03:43:06;;;;;;;30.57;16.33;;;;;;;7.43;73.95;99250.88;5114425;28;20198;-76
2022/04/06 03:45:33;;;;;;;20.60;15.83;;;;;;;7.45;74.90;99248.84;5114077;28;20625;-77
2022/04/06 03:48:00;;;;;;;19.60;14.93;;;;;;;7.44;74.66;99244.59;5114252;28;20574;-77
2022/04/06 03:50:27;;;;;;;21.80;15.47;;;;;;;7.44;75.24;99247.22;5114097;28;20190;-77
2022/04/06 03:52:53;;;;;;;21.57;15.47;;;;;;;7.46;74.20;99247.84;5114570;28;20274;-76
2022/04/06 03:55:22;;;;;;;20.17;15.20;;;;;;;7.46;74.69;99250.50;5113915;28;20247;-76
2022/04/06 03:57:49;;;;;;;22.40;15.77;;;;;;;7.50;74.49;99259.69;5113756;28;20236;-74
2022/04/06 04:00:16;;;;;;;33.97;15.10;;;;;;;7.48;74.85;99251.94;5113749;28;20548;-77
2022/04/06 04:02:43;;;;;;;27.87;14.70;;;;;;;7.56;74.38;99261.63;5114140;28;20255;-77
2022/04/06 04:05:10;;;;;;;27.17;14.50;;;;;;;7.62;74.80;99258.22;5113619;28;20191;-76
2022/04/06 04:07:38;;;;;;;19.67;14.57;;;;;;;7.74;73.98;99260.25;5113476;28;20655;-78
2022/04/06 04:10:07;;;;;;;25.00;14.00;;;;;;;7.86;73.99;99260.59;5113834;28;20273;-78
2022/04/06 04:12:35;;;;;;;28.23;14.47;;;;;;;7.92;73.74;99267.81;5113267;28;20697;-78
2022/04/06 04:15:02;;;;;;;22.20;12.90;;;;;;;8.02;73.39;99268.31;5113894;28;20218;-78
2022/04/06 04:17:29;;;;;;;27.73;14.53;;;;;;;8.01;72.55;99272.78;5113173;28;20243;-78
2022/04/06 04:19:56;;;;;;;30.10;14.97;;;;;;;8.09;73.40;99267.38;5113771;28;20186;-78
2022/04/06 04:22:23;;;;;;;32.07;17.37;;;;;;;8.50;72.37;99276.44;5113391;28;20201;-80
2022/04/06 04:24:49;;;;;;;24.87;15.67;;;;;;;8.96;70.38;99284.81;5114821;28;20273;-79
2022/04/06 04:27:16;;;;;;;26.60;15.53;;;;;;;9.54;68.05;99300.34;5113775;28;20250;-79
2022/04/06 04:29:44;;;;;;;37.13;13.40;;;;;;;10.16;65.73;99303.78;5112991;28;20194;-79
2022/04/06 04:32:11;;;;;;;21.97;12.67;;;;;;;10.84;64.01;99311.56;5113091;28;20186;-79
2022/04/06 04:34:38;;;;;;;32.93;13.93;;;;;;;11.54;61.24;99318.94;5113479;28;20362;-77
2022/04/06 04:37:05;;;;;;;25.37;12.07;;;;;;;11.96;58.58;99324.63;5113502;28;20251;-78
2022/04/06 04:39:32;;;;;;;15.10;11.43;;;;;;;12.30;54.83;99336.81;5113682;28;20262;-79
2022/04/06 04:41:59;;;;;;;12.73;10.30;;;;;;;12.76;54.27;99338.22;5113522;28;20197;-77
2022/04/06 04:44:26;;;;;;;12.37;9.93;;;;;;;13.21;52.99;99342.47;5112692;28;20681;-79
2022/04/06 04:46:54;;;;;;;14.40;8.67;;;;;;;13.45;51.34;99340.84;5113347;28;20197;-79
2022/04/06 04:49:21;;;;;;;11.17;8.80;;;;;;;13.67;50.38;99337.56;5113254;28;20194;-79
2022/04/06 04:51:48;;;;;;;18.07;9.27;;;;;;;14.02;49.08;99340.53;5113571;28;20204;-78
2022/04/06 04:54:16;;;;;;;16.13;9.47;;;;;;;14.34;47.43;99345.50;5112753;28;20222;-73
2022/04/06 04:56:43;;;;;;;16.53;10.50;;;;;;;14.49;46.57;99337.13;5112877;28;20201;-82
2022/04/06 04:59:09;;;;;;;14.90;10.67;;;;;;;14.33;47.61;99343.88;5113955;28;20248;-82
2022/04/06 05:01:36;;;;;;;20.00;10.63;;;;;;;14.37;48.47;99341.56;5112569;28;20190;-81
2022/04/06 05:04:04;;;;;;;20.13;10.93;;;;;;;14.74;46.71;99346.66;5113923;28;20191;-78
2022/04/06 05:06:31;;;;;;;18.37;10.80;;;;;;;15.02;45.16;99354.09;5112437;28;20659;-75
2022/04/06 05:08:58;;;;;;;19.57;9.90;;;;;;;15.40;45.28;99347.34;5112749;28;20194;-73
2022/04/06 05:11:25;;;;;;;13.90;9.10;;;;;;;15.52;43.45;99356.22;5112714;28;20608;-77
2022/04/06 05:13:51;;;;;;;17.13;10.03;;;;;;;16.09;43.29;99356.47;5112937;28;20226;-76
2022/04/06 05:16:18;;;;;;;15.93;5.30;;;;;;;16.92;60.92;99337.03;5113706;28;20194;-75
2022/04/06 05:18:45;;;;;;;15.73;7.23;;;;;;;18.30;52.23;99351.38;5112165;28;20194;-77
2022/04/06 05:21:13;;;;;;;21.40;8.53;;;;;;;18.97;40.40;99352.72;5112863;28;20727;-75
2022/04/06 05:23:40;;;;;;;20.57;8.20;;;;;;;19.09;37.43;99350.69;5113499;28;20646;-74
2022/04/06 05:26:07;;;;;;;28.67;12.33;;;;;;;19.26;35.22;99362.22;5112303;28;20569;-75
2022/04/06 05:28:33;;;;;;;13.27;9.37;;;;;;;18.66;36.06;99373.09;5112889;28;20255;-76
2022/04/06 05:31:00;;;;;;;14.27;7.93;;;;;;;18.44;44.35;99358.84;5112401;28;20720;-68
2022/04/06 05:33:27;;;;;;;11.00;8.70;;;;;;;18.38;41.65;99362.50;5109343;28;20201;-66
2022/04/06 05:35:54;;;;;;;37.80;10.83;;;;;;;18.07;37.82;99373.06;5094460;28;20207;-66
2022/04/06 05:38:22;;;;;;;19.80;10.63;;;;;;;17.91;37.97;99372.03;5112157;28;20194;-67
2022/04/06 05:40:48;;;;;;;16.17;9.53;;;;;;;17.33;39.06;99365.41;5109119;28;20204;-66
2022/04/06 05:43:15;;;;;;;23.97;11.20;;;;;;;17.14;39.64;99377.41;5111671;28;20200;-65
2022/04/06 05:45:42;;;;;;;15.97;10.00;;;;;;;17.08;40.89;99367.63;5111931;28;20247;-65
2022/04/06 05:48:10;;;;;;;10.53;9.43;;;;;;;16.96;42.38;99366.88;5112857;28;20213;-66
2022/04/06 05:50:38;;;;;;;13.40;8.80;;;;;;;16.89;40.65;99361.66;5113420;28;20191;-65
2022/04/06 05:53:04;;;;;;;10.43;8.83;;;;;;;16.59;40.87;99379.84;5115561;28;20656;-66
2022/04/06 05:55:32;;;;;;;12.57;8.80;;;;;;;16.50;41.48;99372.41;5116117;28;20282;-65
2022/04/06 05:57:59;;;;;;;20.17;9.43;;;;;;;16.54;40.01;99382.41;5115181;28;20266;-65
2022/04/06 06:00:26;;;;;;;9.83;8.93;;;;;;;16.60;41.73;99370.75;5115600;28;20195;-66
2022/04/06 06:02:53;;;;;;;12.43;8.80;;;;;;;17.04;39.67;99375.38;5115744;28;20196;-64
2022/04/06 06:05:20;;;;;;;20.57;8.90;;;;;;;17.23;40.35;99375.97;5116196;28;20261;-65
2022/04/06 06:07:47;;;;;;;20.23;10.10;;;;;;;17.74;39.37;99376.63;5131752;27;20254;-66
2022/04/06 06:10:14;;;;;;;19.53;9.30;;;;;;;17.60;38.81;99371.81;5135491;27;20263;-65
2022/04/06 06:12:42;;;;;;;18.63;9.27;;;;;;;17.88;38.83;99374.41;5135121;27;20202;-65
2022/04/06 06:15:09;;;;;;;15.33;7.93;;;;;;;18.86;40.41;99367.13;5125754;27;20225;-65
2022/04/06 06:17:39;;;;;;;8.67;7.73;;;;;;;19.37;37.71;99369.31;5135143;27;20201;-66
2022/04/06 06:20:07;;;;;;;16.00;7.77;;;;;;;20.35;36.21;99372.22;5135080;27;20254;-66
2022/04/06 06:22:34;;;;;;;103.77;12.63;;;;;;;20.53;33.55;99379.88;5134668;27;20283;-66
2022/04/06 06:25:01;;;;;;;15.40;9.30;;;;;;;20.19;34.03;99378.63;5135278;27;20544;-65
2022/04/06 06:27:28;;;;;;;12.00;6.97;;;;;;;20.76;35.49;99373.22;5135441;27;20251;-66
2022/04/06 06:29:56;;;;;;;12.60;8.20;;;;;;;20.36;33.52;99368.44;5135373;27;20685;-65
2022/04/06 06:32:22;;;;;;;13.03;7.40;;;;;;;19.89;34.32;99373.00;5135330;27;20202;-65
2022/04/06 06:34:49;;;;;;;30.67;9.13;;;;;;;19.77;34.83;99369.66;5135638;27;20229;-64
2022/04/06 06:37:16;;;;;;;11.33;7.80;;;;;;;19.73;35.10;99373.94;5134867;27;20190;-65
2022/04/06 06:39:43;;;;;;;19.13;8.57;;;;;;;19.88;34.83;99371.34;5134849;27;20186;-66
2022/04/06 06:42:10;;;;;;;28.57;9.63;;;;;;;19.93;35.04;99374.09;5114707;28;20208;-65
2022/04/06 06:44:36;;;;;;;19.07;8.33;;;;;;;20.09;34.08;99381.22;5114920;28;20201;-66
2022/04/06 06:47:05;;;;;;;11.67;8.00;;;;;;;19.39;34.65;99383.34;5114929;27;20250;-65
2022/04/06 06:49:32;;;;;;;11.20;6.87;;;;;;;19.03;35.27;99373.28;5114231;28;20193;-66
2022/04/06 06:51:58;;;;;;;13.90;6.47;;;;;;;18.80;35.58;99384.31;5114984;28;20197;-66
2022/04/06 06:54:25;;;;;;;13.13;7.03;;;;;;;19.22;35.02;99385.28;5114594;28;20227;-66
2022/04/06 06:56:52;;;;;;;17.60;6.10;;;;;;;20.02;37.17;99386.81;5114645;28;20672;-68
2022/04/06 06:59:18;;;;;;;6.00;5.40;;;;;;;20.49;36.98;99379.59;5114883;28;20251;-65
2022/04/06 07:01:45;;;;;;;12.83;6.60;;;;;;;20.77;32.71;99391.84;5115264;28;20194;-66
2022/04/06 07:04:13;;;;;;;6.27;5.20;;;;;;;20.90;33.22;99390.56;5114640;28;20244;-66
2022/04/06 07:06:40;;;;;;;19.47;6.27;;;;;;;21.67;33.27;99392.06;5114445;28;20663;-65
2022/04/06 07:09:07;;;;;;;7.73;5.80;;;;;;;21.96;34.25;99330.19;5114153;28;20737;-68
2022/04/06 07:11:34;;;;;;;14.27;5.97;;;;;;;22.95;31.88;99385.88;5113141;28;20198;-65
2022/04/06 07:14:00;;;;;;;7.90;5.27;;;;;;;22.74;30.07;99392.47;5114048;28;20699;-66
2022/04/06 07:16:27;;;;;;;8.90;5.63;;;;;;;22.37;30.32;99381.19;5146898;27;20740;-66
2022/04/06 07:18:54;;;;;;;12.67;5.17;;;;;;;22.05;33.29;99382.63;5114214;28;20191;-67
2022/04/06 07:21:22;;;;;;;9.10;6.10;;;;;;;22.37;31.20;99386.63;5114037;28;20190;-67
2022/04/06 07:23:49;;;;;;;10.27;5.43;;;;;;;22.85;30.89;99394.06;5113823;28;20222;-68
2022/04/06 07:26:16;;;;;;;6.50;4.70;;;;;;;23.53;29.05;99389.63;5114519;28;20611;-67
2022/04/06 07:28:44;;;;;;;7.43;4.50;;;;;;;24.11;29.15;99391.34;5114089;28;20224;-67
2022/04/06 07:31:11;;;;;;;7.43;5.50;;;;;;;24.01;26.95;99394.94;5114339;27;20205;-66
2022/04/06 07:33:40;;;;;;;5.13;4.77;;;;;;;24.17;28.17;99399.13;5113488;28;20200;-67
2022/04/06 07:36:08;;;;;;;5.87;5.20;;;;;;;24.37;27.28;99401.66;5133072;27;20219;-67
2022/04/06 07:38:37;;;;;;;34.43;7.13;;;;;;;24.41;27.63;99396.44;5134613;27;20261;-67
2022/04/06 07:41:04;;;;;;;8.20;5.40;;;;;;;24.74;26.18;99396.38;5122080;27;20200;-67
2022/04/06 07:43:32;;;;;;;14.77;5.77;;;;;;;24.75;26.89;99392.53;5093205;28;20209;-67
2022/04/06 07:45:59;;;;;;;9.90;5.53;;;;;;;24.05;26.59;99395.19;5093819;28;20248;-72
2022/04/06 07:48:30;;;;;;;11.87;5.70;;;;;;;23.68;26.73;99386.81;5099896;28;20257;-71
2022/04/06 07:50:58;;;;;;;12.60;5.10;;;;;;;23.24;26.67;99392.25;5113889;28;20226;-72
2022/04/06 07:53:26;;;;;;;8.37;5.50;;;;;;;23.21;27.32;99381.16;5113503;28;20198;-72
2022/04/06 07:55:54;;;;;;;7.27;5.10;;;;;;;23.42;26.95;99394.31;5114099;28;20299;-71
2022/04/06 07:58:21;;;;;;;13.07;5.83;;;;;;;23.65;26.94;99398.22;5113267;28;20647;-70
2022/04/06 08:00:48;;;;;;;9.20;4.73;;;;;;;23.91;26.76;99392.34;5113292;28;20228;-72
2022/04/06 08:03:16;;;;;;;6.77;4.90;;;;;;;23.68;25.83;99393.03;5113421;28;20571;-71
2022/04/06 08:05:44;;;;;;;15.27;5.87;;;;;;;23.94;30.66;99374.66;5113651;28;20231;-68
2022/04/06 08:08:12;;;;;;;18.10;6.30;;;;;;;24.17;27.84;99379.31;5113656;28;20200;-71
2022/04/06 08:10:39;;;;;;;18.43;6.03;;;;;;;24.55;26.64;99395.47;5113553;28;20661;-67
2022/04/06 08:13:11;;;;;;;5.73;5.10;;;;;;;24.57;26.00;99393.28;5112863;28;20204;-68
2022/04/06 08:15:38;;;;;;;6.47;4.57;;;;;;;24.60;27.10;99390.03;5113208;28;20225;-68
2022/04/06 08:18:06;;;;;;;8.07;4.07;;;;;;;24.80;26.43;99369.94;5113766;28;20189;-67
2022/04/06 08:20:34;;;;;;;8.23;4.20;;;;;;;25.25;25.40;99372.03;5112941;28;20619;-68
2022/04/06 08:23:01;;;;;;;6.77;4.50;;;;;;;25.49;24.40;99374.69;5113914;28;20232;-68
2022/04/06 08:25:28;;;;;;;6.83;3.90;;;;;;;25.41;26.16;99372.66;5109537;28;20196;-68
2022/04/06 08:27:55;;;;;;;4.47;4.03;;;;;;;25.45;24.84;99376.38;5112654;28;20228;-68
2022/04/06 08:30:24;;;;;;;6.70;4.00;;;;;;;25.46;25.80;99364.41;5112573;28;20705;-69
2022/04/06 08:32:58;;;;;;;4.93;4.50;;;;;;;25.00;24.92;99373.19;5110328;28;20201;-65
2022/04/06 08:35:25;;;;;;;7.33;4.07;;;;;;;24.91;27.13;99369.50;5113125;28;20603;-64
2022/04/06 08:37:53;;;;;;;10.97;4.33;;;;;;;24.68;25.46;99375.81;5112508;28;20276;-68
2022/04/06 08:40:22;;;;;;;8.10;3.73;;;;;;;24.36;25.95;99367.44;5111896;28;20209;-67
2022/04/06 08:42:49;;;;;;;20.27;5.77;;;;;;;24.22;26.25;99371.13;5112920;28;20273;-67
2022/04/06 08:45:17;;;;;;;15.50;4.93;;;;;;;24.45;26.49;99360.28;5112225;28;20195;-67
2022/04/06 08:47:47;;;;;;;8.60;4.83;;;;;;;24.98;26.17;99362.91;5112850;28;20205;-67
2022/04/06 08:50:14;;;;;;;4.23;3.63;;;;;;;25.35;25.11;99362.97;5112277;28;20182;-66
2022/04/06 08:52:41;;;;;;;7.37;4.27;;;;;;;25.78;25.71;99361.69;5112347;28;20194;-66
2022/04/06 08:55:08;;;;;;;4.80;4.20;;;;;;;25.87;24.65;99354.47;5112210;28;20222;-67
2022/04/06 08:57:36;;;;;;;5.60;3.90;;;;;;;25.82;26.58;99347.22;5112477;28;20727;-67
2022/04/06 09:00:05;;;;;;;7.60;4.10;;;;;;;26.14;24.84;99344.50;5112366;28;20244;-67
2022/04/06 09:02:32;;;;;;;6.97;4.37;;;;;;;26.15;23.31;99345.28;5112532;28;20573;-67
2022/04/06 09:05:03;;;;;;;8.63;4.13;;;;;;;26.39;23.38;99345.91;5112302;28;20202;-67
2022/04/06 09:07:32;;;;;;;5.87;3.87;;;;;;;26.64;23.52;99337.25;5112374;28;20558;-67
2022/04/06 09:10:00;;;;;;;6.03;4.27;;;;;;;26.75;23.94;99344.09;5112535;28;20226;-66
2022/04/06 09:12:28;;;;;;;13.13;4.60;;;;;;;26.89;23.14;99340.25;5112092;28;20197;-67
2022/04/06 09:15:05;;;;;;;6.77;3.97;;;;;;;27.03;23.10;99330.09;5111767;28;20791;-67
2022/04/06 09:17:32;;;;;;;5.53;3.50;;;;;;;27.13;22.76;99320.91;5111991;28;20239;-65
2022/04/06 09:20:00;;;;;;;4.70;4.30;;;;;;;27.11;21.63;99312.22;5112283;28;20266;-66
2022/04/06 09:22:29;;;;;;;4.47;4.07;;;;;;;27.09;22.42;99308.97;5112018;28;20226;-68
2022/04/06 09:24:58;;;;;;;4.43;4.03;;;;;;;27.02;22.44;99311.31;5425040;22;20231;-70
2022/04/06 09:27:30;;;;;;;5.53;4.27;;;;;;;27.25;22.63;99310.28;5074970;28;20630;-69
2022/04/06 09:29:57;;;;;;;6.23;4.07;;;;;;;27.36;22.04;99306.19;5075384;28;20184;-68
2022/04/06 09:58:16;;;;;;;5.17;3.90;;;;;;;26.99;24.26;99265.59;4379694;26;20227;-68
2022/04/06 10:00:43;;;;;;;4.83;4.00;;;;;;;26.84;22.12;99265.94;5084259;28;20257;-70
2022/04/06 10:03:15;;;;;;;8.00;3.50;;;;;;;26.61;22.16;99256.91;5082333;28;20192;-69
2022/04/06 10:05:42;;;;;;;4.43;3.07;;;;;;;26.85;24.45;99252.00;5074210;28;20192;-69
2022/04/06 10:08:10;;;;;;;7.47;3.87;;;;;;;26.92;21.49;99257.03;5092095;28;20199;-69
2022/04/06 10:10:38;;;;;;;4.43;3.67;;;;;;;27.12;22.92;99251.09;5094999;28;20733;-69
2022/04/06 10:13:07;;;;;;;5.47;3.83;;;;;;;27.22;21.99;99250.88;5094951;28;20191;-69
2022/04/06 10:15:37;;;;;;;4.33;3.20;;;;;;;27.34;20.91;99248.41;5086849;28;20219;-74
2022/04/06 10:18:06;;;;;;;8.23;4.33;;;;;;;27.14;19.98;99248.84;5074999;28;20188;-70
2022/04/06 10:20:40;;;;;;;3.93;3.50;;;;;;;26.73;20.18;99232.66;5074666;28;20684;-70
2022/04/06 10:23:15;;;;;;;4.93;3.90;;;;;;;26.49;21.43;99236.72;5075270;28;20270;-69
2022/04/06 10:26:00;;;;;;;4.37;3.77;;;;;;;26.44;19.99;99228.66;5040224;28;20203;-80
2022/04/06 10:28:33;;;;;;;15.73;4.27;;;;;;;26.11;20.37;99229.91;5074570;28;20184;-66
2022/04/06 10:31:19;;;;;;;4.00;3.67;;;;;;;26.07;20.54;99224.25;5074346;28;20233;-65
2022/04/06 10:33:46;;;;;;;11.23;4.27;;;;;;;26.07;21.88;99220.72;5090247;28;20237;-70
2022/04/06 10:36:17;;;;;;;3.30;3.10;;;;;;;25.86;20.16;99205.88;5092942;28;20219;-77
2022/04/06 10:39:12;;;;;;;3.90;3.37;;;;;;;25.64;20.14;99231.03;5074354;28;20191;-80
2022/04/06 10:41:41;;;;;;;5.90;3.10;;;;;;;25.71;20.03;99219.78;5039523;28;20199;-80
2022/04/06 10:44:08;;;;;;;7.53;2.63;;;;;;;25.72;19.28;99221.41;5054227;28;20193;-76
2022/04/06 10:46:39;;;;;;;5.30;3.10;;;;;;;25.72;19.13;99210.53;5036195;28;20572;-75
2022/04/06 10:49:15;;;;;;;5.80;3.20;;;;;;;25.78;19.11;99204.69;5055329;28;20242;-75
2022/04/06 10:51:45;;;;;;;12.37;3.43;;;;;;;25.64;20.38;99209.28;5053999;28;20192;-75
2022/04/06 10:54:40;;;;;;;4.47;3.20;;;;;;;25.31;20.48;99199.56;5054533;28;20221;-79
2022/04/06 10:57:07;;;;;;;3.60;3.30;;;;;;;25.05;20.89;99190.19;5053590;28;20720;-75
2022/04/06 10:59:34;;;;;;;3.83;3.53;;;;;;;25.23;21.18;99202.13;5053152;28;20303;-74
2022/04/06 11:02:19;;;;;;;5.57;3.17;;;;;;;25.31;21.06;99193.31;5051698;28;20207;-75
2022/04/06 11:04:47;;;;;;;5.03;3.30;;;;;;;25.25;21.46;99189.84;5051975;28;20645;-74
2022/04/06 11:10:06;;;;;;;4.17;3.20;;;;;;;25.31;21.09;99187.88;5075329;28;20667;-75
2022/04/06 11:10:12;;;;;;;3.23;2.80;;;;;;;25.09;19.88;99185.78;5091592;28;20700;-75
2022/04/06 11:13:00;;;;;;;2.90;2.80;;;;;;;25.00;19.78;99182.91;5091299;28;20275;-75
2022/04/06 11:15:40;;;;;;;3.03;2.70;;;;;;;24.68;19.97;99179.38;5093859;28;20252;-75
2022/04/06 11:18:48;;;;;;;3.00;2.73;;;;;;;24.56;19.82;99177.09;5076480;28;20194;-75
2022/04/06 11:21:16;;;;;;;2.73;2.50;;;;;;;24.74;20.15;99179.00;5093600;28;20205;-75
2022/04/06 11:23:43;;;;;;;4.00;2.80;;;;;;;24.65;20.52;99180.78;5094088;28;20202;-75
2022/04/06 11:26:10;;;;;;;3.40;2.47;;;;;;;24.42;20.42;99168.03;5093508;28;20657;-74
2022/04/06 11:28:38;;;;;;;3.97;2.50;;;;;;;24.54;20.37;99171.13;5093860;28;20198;-75
2022/04/06 11:31:05;;;;;;;7.30;2.73;;;;;;;24.49;19.56;99173.94;5093967;28;20267;-75
2022/04/06 11:33:42;;;;;;;4.23;2.60;;;;;;;24.26;19.48;99166.63;5061586;28;20283;-75
2022/04/06 11:36:13;;;;;;;9.53;2.50;;;;;;;24.27;19.78;99171.00;5072507;28;20222;-73
2022/04/06 11:38:41;;;;;;;2.43;2.20;;;;;;;24.31;19.79;99158.44;5073483;28;20256;-77
2022/04/06 11:41:08;;;;;;;2.63;2.43;;;;;;;24.15;19.25;99157.03;5042910;28;20199;-79
2022/04/06 11:43:38;;;;;;;2.30;2.20;;;;;;;24.24;19.56;99147.13;5053025;28;20660;-76
2022/04/06 11:46:04;;;;;;;2.37;2.27;;;;;;;24.07;19.71;99146.00;5053477;28;20287;-75
2022/04/06 11:48:41;;;;;;;2.17;2.07;;;;;;;24.14;19.88;99144.53;5052625;28;20208;-76
2022/04/06 11:51:08;;;;;;;4.30;1.90;;;;;;;24.21;19.55;99147.72;5053263;28;20615;-75
2022/04/06 11:53:36;;;;;;;2.60;2.50;;;;;;;23.94;19.67;99117.69;5053326;28;20195;-77
2022/04/06 11:56:03;;;;;;;3.03;2.13;;;;;;;24.14;19.71;99135.63;5052409;28;20226;-77
2022/04/06 11:58:32;;;;;;;10.93;2.90;;;;;;;24.17;19.32;99127.69;5052892;28;20652;-70
2022/04/06 12:08:48;;;;;;;9.23;2.73;;;;;;;24.26;20.69;99117.78;5529522;22;21238;-76